sensor_id;sensor_type;location;lat;lon;timestamp;P1;durP1;ratioP1;P2;durP2;ratioP2
14048;SDS011;7099;53.922;10.728;2023-04-08T00:03:04;10.63;;;5.83;;
14048;SDS011;7099;53.922;10.728;2023-04-08T00:07:10;7.20;;;5.37;;
14048;SDS011;7099;53.922;10.728;2023-04-08T00:11:16;7.10;;;4.97;;
14048;SDS011;7099;53.922;10.728;2023-04-08T00:15:22;6.67;;;4.90;;
14048;SDS011;7099;53.922;10.728;2023-04-08T00:19:27;6.80;;;4.60;;
14048;SDS011;7099;53.922;10.728;2023-04-08T00:23:33;8.80;;;4.40;;
14048;SDS011;7099;53.922;10.728;2023-04-08T00:27:39;7.40;;;5.10;;
14048;SDS011;7099;53.922;10.728;2023-04-08T00:31:44;12.90;;;5.40;;
14048;SDS011;7099;53.922;10.728;2023-04-08T00:35:50;4.60;;;3.90;;
14048;SDS011;7099;53.922;10.728;2023-04-08T00:39:56;8.53;;;4.90;;
14048;SDS011;7099;53.922;10.728;2023-04-08T00:44:01;9.33;;;5.40;;
14048;SDS011;7099;53.922;10.728;2023-04-08T00:48:07;10.53;;;6.27;;
14048;SDS011;7099;53.922;10.728;2023-04-08T00:52:12;6.90;;;5.70;;
14048;SDS011;7099;53.922;10.728;2023-04-08T00:56:18;10.60;;;5.90;;
14048;SDS011;7099;53.922;10.728;2023-04-08T01:00:25;10.17;;;6.63;;
14048;SDS011;7099;53.922;10.728;2023-04-08T01:08:45;12.97;;;7.87;;
14048;SDS011;7099;53.922;10.728;2023-04-08T01:12:54;15.13;;;8.30;;
14048;SDS011;7099;53.922;10.728;2023-04-08T01:17:02;11.80;;;7.60;;
14048;SDS011;7099;53.922;10.728;2023-04-08T01:21:08;16.40;;;7.47;;
14048;SDS011;7099;53.922;10.728;2023-04-08T01:25:16;16.33;;;7.90;;
14048;SDS011;7099;53.922;10.728;2023-04-08T01:29:25;11.80;;;8.40;;
14048;SDS011;7099;53.922;10.728;2023-04-08T01:33:33;17.67;;;8.60;;
14048;SDS011;7099;53.922;10.728;2023-04-08T01:37:40;22.20;;;9.80;;
14048;SDS011;7099;53.922;10.728;2023-04-08T01:41:47;15.63;;;9.37;;
14048;SDS011;7099;53.922;10.728;2023-04-08T01:45:54;21.97;;;10.20;;
14048;SDS011;7099;53.922;10.728;2023-04-08T01:50:02;13.43;;;8.20;;
14048;SDS011;7099;53.922;10.728;2023-04-08T01:54:10;15.17;;;8.10;;
14048;SDS011;7099;53.922;10.728;2023-04-08T01:58:17;17.43;;;9.70;;
14048;SDS011;7099;53.922;10.728;2023-04-08T02:02:25;18.70;;;9.27;;
14048;SDS011;7099;53.922;10.728;2023-04-08T02:06:32;19.27;;;9.50;;
14048;SDS011;7099;53.922;10.728;2023-04-08T02:10:38;17.10;;;9.57;;
14048;SDS011;7099;53.922;10.728;2023-04-08T02:14:44;14.93;;;8.97;;
14048;SDS011;7099;53.922;10.728;2023-04-08T02:23:23;13.50;;;7.77;;
14048;SDS011;7099;53.922;10.728;2023-04-08T02:27:33;16.17;;;8.90;;
14048;SDS011;7099;53.922;10.728;2023-04-08T02:31:40;16.80;;;9.23;;
14048;SDS011;7099;53.922;10.728;2023-04-08T02:35:48;16.30;;;8.90;;
14048;SDS011;7099;53.922;10.728;2023-04-08T02:39:58;21.83;;;8.60;;
14048;SDS011;7099;53.922;10.728;2023-04-08T02:44:05;12.97;;;7.73;;
14048;SDS011;7099;53.922;10.728;2023-04-08T02:48:10;14.73;;;9.20;;
14048;SDS011;7099;53.922;10.728;2023-04-08T02:52:16;12.73;;;8.83;;
14048;SDS011;7099;53.922;10.728;2023-04-08T02:56:22;16.50;;;8.80;;
14048;SDS011;7099;53.922;10.728;2023-04-08T03:00:28;18.70;;;8.80;;
14048;SDS011;7099;53.922;10.728;2023-04-08T03:04:33;13.80;;;8.50;;
14048;SDS011;7099;53.922;10.728;2023-04-08T03:08:39;24.20;;;8.87;;
14048;SDS011;7099;53.922;10.728;2023-04-08T03:12:44;20.30;;;8.53;;
14048;SDS011;7099;53.922;10.728;2023-04-08T03:16:50;16.67;;;8.00;;
14048;SDS011;7099;53.922;10.728;2023-04-08T03:20:56;17.63;;;9.10;;
14048;SDS011;7099;53.922;10.728;2023-04-08T03:25:03;14.83;;;8.83;;
14048;SDS011;7099;53.922;10.728;2023-04-08T03:29:10;18.27;;;9.00;;
14048;SDS011;7099;53.922;10.728;2023-04-08T03:33:15;17.73;;;9.13;;
14048;SDS011;7099;53.922;10.728;2023-04-08T03:37:22;14.10;;;9.30;;
14048;SDS011;7099;53.922;10.728;2023-04-08T03:41:28;17.60;;;9.87;;
14048;SDS011;7099;53.922;10.728;2023-04-08T03:45:35;14.80;;;9.00;;
14048;SDS011;7099;53.922;10.728;2023-04-08T03:49:41;23.37;;;10.20;;
14048;SDS011;7099;53.922;10.728;2023-04-08T03:53:47;18.10;;;9.80;;
14048;SDS011;7099;53.922;10.728;2023-04-08T03:57:53;18.40;;;9.87;;
14048;SDS011;7099;53.922;10.728;2023-04-08T04:01:58;20.93;;;9.63;;
14048;SDS011;7099;53.922;10.728;2023-04-08T04:06:04;18.30;;;8.43;;
14048;SDS011;7099;53.922;10.728;2023-04-08T04:10:10;17.60;;;9.90;;
14048;SDS011;7099;53.922;10.728;2023-04-08T04:14:15;24.47;;;10.27;;
14048;SDS011;7099;53.922;10.728;2023-04-08T04:18:21;19.77;;;10.93;;
14048;SDS011;7099;53.922;10.728;2023-04-08T04:22:26;16.33;;;9.23;;
14048;SDS011;7099;53.922;10.728;2023-04-08T04:26:32;23.27;;;9.73;;
14048;SDS011;7099;53.922;10.728;2023-04-08T04:30:38;12.90;;;8.60;;
14048;SDS011;7099;53.922;10.728;2023-04-08T04:34:44;15.03;;;8.57;;
14048;SDS011;7099;53.922;10.728;2023-04-08T04:38:50;16.23;;;7.30;;
14048;SDS011;7099;53.922;10.728;2023-04-08T04:42:56;16.13;;;8.90;;
14048;SDS011;7099;53.922;10.728;2023-04-08T04:47:01;16.23;;;9.53;;
14048;SDS011;7099;53.922;10.728;2023-04-08T04:51:07;21.13;;;8.77;;
14048;SDS011;7099;53.922;10.728;2023-04-08T04:55:12;18.07;;;8.70;;
14048;SDS011;7099;53.922;10.728;2023-04-08T04:59:19;13.00;;;7.93;;
14048;SDS011;7099;53.922;10.728;2023-04-08T05:03:25;17.13;;;8.67;;
14048;SDS011;7099;53.922;10.728;2023-04-08T05:07:34;24.40;;;9.63;;
14048;SDS011;7099;53.922;10.728;2023-04-08T05:11:40;11.63;;;7.70;;
14048;SDS011;7099;53.922;10.728;2023-04-08T05:15:46;12.87;;;6.77;;
14048;SDS011;7099;53.922;10.728;2023-04-08T05:19:52;13.47;;;5.53;;
14048;SDS011;7099;53.922;10.728;2023-04-08T05:23:57;14.40;;;7.30;;
14048;SDS011;7099;53.922;10.728;2023-04-08T05:28:03;15.63;;;6.43;;
14048;SDS011;7099;53.922;10.728;2023-04-08T05:32:09;13.20;;;6.73;;
14048;SDS011;7099;53.922;10.728;2023-04-08T05:36:14;14.80;;;7.10;;
14048;SDS011;7099;53.922;10.728;2023-04-08T05:40:20;18.70;;;7.77;;
14048;SDS011;7099;53.922;10.728;2023-04-08T05:44:26;16.50;;;8.03;;
14048;SDS011;7099;53.922;10.728;2023-04-08T05:48:31;15.20;;;8.57;;
14048;SDS011;7099;53.922;10.728;2023-04-08T05:52:40;16.97;;;7.27;;
14048;SDS011;7099;53.922;10.728;2023-04-08T05:56:49;16.87;;;7.57;;
14048;SDS011;7099;53.922;10.728;2023-04-08T06:00:55;14.13;;;7.07;;
14048;SDS011;7099;53.922;10.728;2023-04-08T06:05:00;13.67;;;7.40;;
14048;SDS011;7099;53.922;10.728;2023-04-08T06:09:07;16.63;;;7.83;;
14048;SDS011;7099;53.922;10.728;2023-04-08T06:13:16;15.93;;;6.70;;
14048;SDS011;7099;53.922;10.728;2023-04-08T06:17:22;15.37;;;8.20;;
14048;SDS011;7099;53.922;10.728;2023-04-08T06:21:28;14.60;;;6.90;;
14048;SDS011;7099;53.922;10.728;2023-04-08T06:25:33;11.97;;;6.80;;
14048;SDS011;7099;53.922;10.728;2023-04-08T06:29:39;15.63;;;7.33;;
14048;SDS011;7099;53.922;10.728;2023-04-08T06:33:47;9.80;;;6.57;;
14048;SDS011;7099;53.922;10.728;2023-04-08T06:37:52;12.00;;;7.13;;
14048;SDS011;7099;53.922;10.728;2023-04-08T06:41:58;13.50;;;7.43;;
14048;SDS011;7099;53.922;10.728;2023-04-08T06:46:03;11.90;;;6.33;;
14048;SDS011;7099;53.922;10.728;2023-04-08T06:50:09;13.33;;;7.47;;
14048;SDS011;7099;53.922;10.728;2023-04-08T06:54:15;9.27;;;6.80;;
14048;SDS011;7099;53.922;10.728;2023-04-08T06:58:20;13.17;;;7.90;;
14048;SDS011;7099;53.922;10.728;2023-04-08T07:02:26;13.60;;;7.43;;
14048;SDS011;7099;53.922;10.728;2023-04-08T07:06:32;13.10;;;7.40;;
14048;SDS011;7099;53.922;10.728;2023-04-08T07:10:37;8.70;;;6.40;;
14048;SDS011;7099;53.922;10.728;2023-04-08T07:14:43;12.67;;;7.20;;
14048;SDS011;7099;53.922;10.728;2023-04-08T07:18:49;11.90;;;6.47;;
14048;SDS011;7099;53.922;10.728;2023-04-08T07:22:56;11.87;;;7.47;;
14048;SDS011;7099;53.922;10.728;2023-04-08T07:27:01;12.80;;;8.50;;
14048;SDS011;7099;53.922;10.728;2023-04-08T07:31:11;17.43;;;8.87;;
14048;SDS011;7099;53.922;10.728;2023-04-08T07:35:21;20.60;;;9.50;;
14048;SDS011;7099;53.922;10.728;2023-04-08T07:39:31;20.43;;;9.70;;
14048;SDS011;7099;53.922;10.728;2023-04-08T07:43:37;15.53;;;8.73;;
14048;SDS011;7099;53.922;10.728;2023-04-08T07:47:43;14.80;;;9.03;;
14048;SDS011;7099;53.922;10.728;2023-04-08T07:51:48;14.33;;;8.20;;
14048;SDS011;7099;53.922;10.728;2023-04-08T07:55:54;11.40;;;7.30;;
14048;SDS011;7099;53.922;10.728;2023-04-08T07:59:59;12.90;;;7.20;;
14048;SDS011;7099;53.922;10.728;2023-04-08T08:04:05;14.00;;;7.83;;
14048;SDS011;7099;53.922;10.728;2023-04-08T08:08:11;12.57;;;7.57;;
14048;SDS011;7099;53.922;10.728;2023-04-08T08:12:16;15.80;;;7.87;;
14048;SDS011;7099;53.922;10.728;2023-04-08T08:16:22;18.27;;;7.90;;
14048;SDS011;7099;53.922;10.728;2023-04-08T08:20:31;15.83;;;8.23;;
14048;SDS011;7099;53.922;10.728;2023-04-08T08:24:36;11.00;;;7.30;;
14048;SDS011;7099;53.922;10.728;2023-04-08T08:28:42;14.87;;;8.67;;
14048;SDS011;7099;53.922;10.728;2023-04-08T08:32:47;17.00;;;9.53;;
14048;SDS011;7099;53.922;10.728;2023-04-08T08:36:55;12.60;;;8.10;;
14048;SDS011;7099;53.922;10.728;2023-04-08T08:41:00;12.03;;;7.13;;
14048;SDS011;7099;53.922;10.728;2023-04-08T08:45:08;13.20;;;8.30;;
14048;SDS011;7099;53.922;10.728;2023-04-08T08:49:14;19.30;;;9.10;;
14048;SDS011;7099;53.922;10.728;2023-04-08T08:53:20;13.50;;;8.80;;
14048;SDS011;7099;53.922;10.728;2023-04-08T08:57:27;15.63;;;7.70;;
14048;SDS011;7099;53.922;10.728;2023-04-08T09:01:33;23.23;;;10.30;;
14048;SDS011;7099;53.922;10.728;2023-04-08T09:05:58;18.13;;;10.17;;
14048;SDS011;7099;53.922;10.728;2023-04-08T09:10:06;19.00;;;10.23;;
14048;SDS011;7099;53.922;10.728;2023-04-08T09:18:30;16.00;;;9.73;;
14048;SDS011;7099;53.922;10.728;2023-04-08T09:27:01;14.93;;;9.90;;
14048;SDS011;7099;53.922;10.728;2023-04-08T09:35:27;16.10;;;8.33;;
14048;SDS011;7099;53.922;10.728;2023-04-08T09:39:33;13.47;;;8.57;;
14048;SDS011;7099;53.922;10.728;2023-04-08T09:43:43;10.10;;;8.50;;
14048;SDS011;7099;53.922;10.728;2023-04-08T09:47:56;14.60;;;7.40;;
14048;SDS011;7099;53.922;10.728;2023-04-08T09:52:29;13.93;;;7.87;;
14048;SDS011;7099;53.922;10.728;2023-04-08T09:56:40;13.17;;;8.30;;
14048;SDS011;7099;53.922;10.728;2023-04-08T10:01:19;10.43;;;8.23;;
14048;SDS011;7099;53.922;10.728;2023-04-08T10:05:34;13.63;;;8.50;;
14048;SDS011;7099;53.922;10.728;2023-04-08T10:09:43;16.07;;;7.90;;
14048;SDS011;7099;53.922;10.728;2023-04-08T10:13:49;11.97;;;8.70;;
14048;SDS011;7099;53.922;10.728;2023-04-08T10:18:42;11.87;;;8.73;;
14048;SDS011;7099;53.922;10.728;2023-04-08T10:26:40;10.47;;;8.30;;
14048;SDS011;7099;53.922;10.728;2023-04-08T10:35:03;11.63;;;7.93;;
14048;SDS011;7099;53.922;10.728;2023-04-08T10:39:09;14.53;;;8.27;;
14048;SDS011;7099;53.922;10.728;2023-04-08T10:43:16;10.90;;;7.47;;
14048;SDS011;7099;53.922;10.728;2023-04-08T10:47:25;10.97;;;6.70;;
14048;SDS011;7099;53.922;10.728;2023-04-08T10:51:31;14.83;;;7.50;;
14048;SDS011;7099;53.922;10.728;2023-04-08T10:55:38;14.07;;;8.43;;
14048;SDS011;7099;53.922;10.728;2023-04-08T10:59:45;14.27;;;8.10;;
14048;SDS011;7099;53.922;10.728;2023-04-08T11:03:51;14.23;;;9.10;;
14048;SDS011;7099;53.922;10.728;2023-04-08T11:08:00;14.37;;;7.33;;
14048;SDS011;7099;53.922;10.728;2023-04-08T11:12:06;14.60;;;7.90;;
14048;SDS011;7099;53.922;10.728;2023-04-08T11:16:12;10.63;;;7.80;;
14048;SDS011;7099;53.922;10.728;2023-04-08T11:20:22;12.13;;;8.50;;
14048;SDS011;7099;53.922;10.728;2023-04-08T11:24:29;17.90;;;8.77;;
14048;SDS011;7099;53.922;10.728;2023-04-08T11:28:35;11.97;;;8.20;;
14048;SDS011;7099;53.922;10.728;2023-04-08T11:32:41;12.20;;;8.23;;
14048;SDS011;7099;53.922;10.728;2023-04-08T11:36:46;12.23;;;8.73;;
14048;SDS011;7099;53.922;10.728;2023-04-08T11:40:56;23.83;;;10.27;;
14048;SDS011;7099;53.922;10.728;2023-04-08T11:45:10;16.03;;;10.33;;
14048;SDS011;7099;53.922;10.728;2023-04-08T11:49:18;12.50;;;9.23;;
14048;SDS011;7099;53.922;10.728;2023-04-08T11:53:24;13.00;;;7.90;;
14048;SDS011;7099;53.922;10.728;2023-04-08T11:57:30;15.30;;;8.03;;
14048;SDS011;7099;53.922;10.728;2023-04-08T12:01:36;12.83;;;8.53;;
14048;SDS011;7099;53.922;10.728;2023-04-08T12:05:42;16.10;;;8.87;;
14048;SDS011;7099;53.922;10.728;2023-04-08T12:09:47;12.63;;;7.87;;
14048;SDS011;7099;53.922;10.728;2023-04-08T12:13:53;12.77;;;9.27;;
14048;SDS011;7099;53.922;10.728;2023-04-08T12:17:58;11.60;;;6.67;;
14048;SDS011;7099;53.922;10.728;2023-04-08T12:22:04;15.43;;;8.50;;
14048;SDS011;7099;53.922;10.728;2023-04-08T12:26:10;12.70;;;6.87;;
14048;SDS011;7099;53.922;10.728;2023-04-08T12:30:17;11.80;;;8.07;;
14048;SDS011;7099;53.922;10.728;2023-04-08T12:34:22;14.80;;;8.43;;
14048;SDS011;7099;53.922;10.728;2023-04-08T12:38:28;25.83;;;15.53;;
14048;SDS011;7099;53.922;10.728;2023-04-08T12:42:34;14.00;;;8.17;;
14048;SDS011;7099;53.922;10.728;2023-04-08T12:46:39;16.97;;;8.07;;
14048;SDS011;7099;53.922;10.728;2023-04-08T12:50:45;13.07;;;8.50;;
14048;SDS011;7099;53.922;10.728;2023-04-08T12:54:50;12.40;;;8.20;;
14048;SDS011;7099;53.922;10.728;2023-04-08T12:58:56;17.60;;;7.83;;
14048;SDS011;7099;53.922;10.728;2023-04-08T13:03:03;15.93;;;7.20;;
14048;SDS011;7099;53.922;10.728;2023-04-08T13:07:10;14.57;;;8.63;;
14048;SDS011;7099;53.922;10.728;2023-04-08T13:11:15;11.50;;;6.60;;
14048;SDS011;7099;53.922;10.728;2023-04-08T13:15:21;9.57;;;7.30;;
14048;SDS011;7099;53.922;10.728;2023-04-08T13:19:27;12.90;;;7.20;;
14048;SDS011;7099;53.922;10.728;2023-04-08T13:23:32;15.07;;;8.93;;
14048;SDS011;7099;53.922;10.728;2023-04-08T13:27:38;12.50;;;6.90;;
14048;SDS011;7099;53.922;10.728;2023-04-08T13:31:44;10.43;;;6.47;;
14048;SDS011;7099;53.922;10.728;2023-04-08T13:35:50;11.13;;;7.13;;
14048;SDS011;7099;53.922;10.728;2023-04-08T13:39:55;11.70;;;7.10;;
14048;SDS011;7099;53.922;10.728;2023-04-08T13:44:01;13.27;;;8.33;;
14048;SDS011;7099;53.922;10.728;2023-04-08T13:48:07;7.63;;;5.60;;
14048;SDS011;7099;53.922;10.728;2023-04-08T13:52:13;9.17;;;5.80;;
14048;SDS011;7099;53.922;10.728;2023-04-08T13:56:19;10.13;;;7.17;;
14048;SDS011;7099;53.922;10.728;2023-04-08T14:00:24;10.13;;;7.20;;
14048;SDS011;7099;53.922;10.728;2023-04-08T14:04:30;12.80;;;6.57;;
14048;SDS011;7099;53.922;10.728;2023-04-08T14:08:38;12.43;;;6.60;;
14048;SDS011;7099;53.922;10.728;2023-04-08T14:12:44;10.73;;;6.30;;
14048;SDS011;7099;53.922;10.728;2023-04-08T14:16:50;7.60;;;6.23;;
14048;SDS011;7099;53.922;10.728;2023-04-08T14:20:56;9.50;;;7.40;;
14048;SDS011;7099;53.922;10.728;2023-04-08T14:25:01;10.80;;;6.90;;
14048;SDS011;7099;53.922;10.728;2023-04-08T14:29:07;9.77;;;6.87;;
14048;SDS011;7099;53.922;10.728;2023-04-08T14:33:13;13.63;;;7.63;;
14048;SDS011;7099;53.922;10.728;2023-04-08T14:37:18;9.43;;;6.87;;
14048;SDS011;7099;53.922;10.728;2023-04-08T14:41:24;9.47;;;7.07;;
14048;SDS011;7099;53.922;10.728;2023-04-08T14:45:31;12.63;;;7.53;;
14048;SDS011;7099;53.922;10.728;2023-04-08T14:49:36;15.30;;;8.07;;
14048;SDS011;7099;53.922;10.728;2023-04-08T14:53:42;11.63;;;7.70;;
14048;SDS011;7099;53.922;10.728;2023-04-08T14:57:48;21.33;;;11.60;;
14048;SDS011;7099;53.922;10.728;2023-04-08T15:01:53;14.60;;;9.17;;
14048;SDS011;7099;53.922;10.728;2023-04-08T15:05:59;10.47;;;6.73;;
14048;SDS011;7099;53.922;10.728;2023-04-08T15:10:05;17.37;;;7.67;;
14048;SDS011;7099;53.922;10.728;2023-04-08T15:14:12;7.23;;;5.30;;
14048;SDS011;7099;53.922;10.728;2023-04-08T15:18:17;7.73;;;5.67;;
14048;SDS011;7099;53.922;10.728;2023-04-08T15:22:23;15.87;;;7.83;;
14048;SDS011;7099;53.922;10.728;2023-04-08T15:26:28;13.10;;;7.67;;
14048;SDS011;7099;53.922;10.728;2023-04-08T15:30:34;14.83;;;8.00;;
14048;SDS011;7099;53.922;10.728;2023-04-08T15:34:40;12.00;;;7.97;;
14048;SDS011;7099;53.922;10.728;2023-04-08T15:38:46;19.20;;;8.97;;
14048;SDS011;7099;53.922;10.728;2023-04-08T15:42:52;13.23;;;8.17;;
14048;SDS011;7099;53.922;10.728;2023-04-08T15:46:57;12.87;;;8.10;;
14048;SDS011;7099;53.922;10.728;2023-04-08T15:51:06;11.93;;;7.87;;
14048;SDS011;7099;53.922;10.728;2023-04-08T15:55:12;14.47;;;7.30;;
14048;SDS011;7099;53.922;10.728;2023-04-08T15:59:17;11.60;;;7.43;;
14048;SDS011;7099;53.922;10.728;2023-04-08T16:03:23;12.73;;;7.93;;
14048;SDS011;7099;53.922;10.728;2023-04-08T16:07:29;16.27;;;9.30;;
14048;SDS011;7099;53.922;10.728;2023-04-08T16:11:35;12.70;;;8.93;;
14048;SDS011;7099;53.922;10.728;2023-04-08T16:15:40;14.90;;;8.53;;
14048;SDS011;7099;53.922;10.728;2023-04-08T16:19:46;14.47;;;8.13;;
14048;SDS011;7099;53.922;10.728;2023-04-08T16:23:52;12.90;;;9.50;;
14048;SDS011;7099;53.922;10.728;2023-04-08T16:27:58;16.27;;;9.87;;
14048;SDS011;7099;53.922;10.728;2023-04-08T16:32:03;18.73;;;10.37;;
14048;SDS011;7099;53.922;10.728;2023-04-08T16:36:09;19.20;;;10.60;;
14048;SDS011;7099;53.922;10.728;2023-04-08T16:40:15;24.57;;;12.60;;
14048;SDS011;7099;53.922;10.728;2023-04-08T16:44:21;28.20;;;15.77;;
14048;SDS011;7099;53.922;10.728;2023-04-08T16:48:27;44.70;;;23.00;;
14048;SDS011;7099;53.922;10.728;2023-04-08T16:52:33;32.63;;;15.00;;
14048;SDS011;7099;53.922;10.728;2023-04-08T16:56:39;30.30;;;18.10;;
14048;SDS011;7099;53.922;10.728;2023-04-08T17:00:49;33.10;;;17.53;;
14048;SDS011;7099;53.922;10.728;2023-04-08T17:04:55;27.80;;;13.67;;
14048;SDS011;7099;53.922;10.728;2023-04-08T17:09:01;22.37;;;14.40;;
14048;SDS011;7099;53.922;10.728;2023-04-08T17:13:08;17.97;;;12.13;;
14048;SDS011;7099;53.922;10.728;2023-04-08T17:17:15;21.73;;;13.63;;
14048;SDS011;7099;53.922;10.728;2023-04-08T17:21:21;28.87;;;17.17;;
14048;SDS011;7099;53.922;10.728;2023-04-08T17:25:26;21.80;;;13.53;;
14048;SDS011;7099;53.922;10.728;2023-04-08T17:29:32;31.80;;;12.57;;
14048;SDS011;7099;53.922;10.728;2023-04-08T17:33:38;24.97;;;14.57;;
14048;SDS011;7099;53.922;10.728;2023-04-08T17:37:44;27.63;;;15.80;;
14048;SDS011;7099;53.922;10.728;2023-04-08T17:41:49;31.77;;;17.10;;
14048;SDS011;7099;53.922;10.728;2023-04-08T17:45:58;27.60;;;15.90;;
14048;SDS011;7099;53.922;10.728;2023-04-08T17:50:05;23.90;;;14.30;;
14048;SDS011;7099;53.922;10.728;2023-04-08T17:54:15;22.70;;;13.60;;
14048;SDS011;7099;53.922;10.728;2023-04-08T17:58:21;26.07;;;15.27;;
14048;SDS011;7099;53.922;10.728;2023-04-08T18:02:26;25.90;;;15.37;;
14048;SDS011;7099;53.922;10.728;2023-04-08T18:06:33;29.30;;;17.00;;
14048;SDS011;7099;53.922;10.728;2023-04-08T18:10:39;27.23;;;15.93;;
14048;SDS011;7099;53.922;10.728;2023-04-08T18:14:47;23.70;;;15.10;;
14048;SDS011;7099;53.922;10.728;2023-04-08T18:18:52;33.37;;;16.83;;
14048;SDS011;7099;53.922;10.728;2023-04-08T18:22:58;27.50;;;16.70;;
14048;SDS011;7099;53.922;10.728;2023-04-08T18:27:07;31.90;;;17.27;;
14048;SDS011;7099;53.922;10.728;2023-04-08T18:31:13;35.67;;;19.30;;
14048;SDS011;7099;53.922;10.728;2023-04-08T18:35:19;35.40;;;18.63;;
14048;SDS011;7099;53.922;10.728;2023-04-08T18:39:25;41.33;;;20.13;;
14048;SDS011;7099;53.922;10.728;2023-04-08T18:43:31;40.43;;;20.60;;
14048;SDS011;7099;53.922;10.728;2023-04-08T18:47:37;42.63;;;21.30;;
14048;SDS011;7099;53.922;10.728;2023-04-08T18:51:43;41.37;;;20.30;;
14048;SDS011;7099;53.922;10.728;2023-04-08T18:56:08;41.70;;;20.77;;
14048;SDS011;7099;53.922;10.728;2023-04-08T19:00:21;37.23;;;20.17;;
14048;SDS011;7099;53.922;10.728;2023-04-08T19:04:27;43.17;;;22.20;;
14048;SDS011;7099;53.922;10.728;2023-04-08T19:08:32;42.90;;;22.53;;
14048;SDS011;7099;53.922;10.728;2023-04-08T19:12:38;54.70;;;25.53;;
14048;SDS011;7099;53.922;10.728;2023-04-08T19:16:44;56.90;;;25.60;;
14048;SDS011;7099;53.922;10.728;2023-04-08T19:20:49;56.20;;;25.10;;
14048;SDS011;7099;53.922;10.728;2023-04-08T19:24:55;51.33;;;25.87;;
14048;SDS011;7099;53.922;10.728;2023-04-08T19:29:01;50.47;;;23.93;;
14048;SDS011;7099;53.922;10.728;2023-04-08T19:33:07;62.73;;;26.87;;
14048;SDS011;7099;53.922;10.728;2023-04-08T19:37:12;70.83;;;31.17;;
14048;SDS011;7099;53.922;10.728;2023-04-08T19:41:18;67.03;;;31.50;;
14048;SDS011;7099;53.922;10.728;2023-04-08T19:45:24;59.03;;;27.23;;
14048;SDS011;7099;53.922;10.728;2023-04-08T19:49:30;55.70;;;24.40;;
14048;SDS011;7099;53.922;10.728;2023-04-08T19:53:37;56.80;;;23.90;;
14048;SDS011;7099;53.922;10.728;2023-04-08T19:57:42;56.20;;;25.03;;
14048;SDS011;7099;53.922;10.728;2023-04-08T20:01:48;62.43;;;26.10;;
14048;SDS011;7099;53.922;10.728;2023-04-08T20:05:55;61.17;;;27.03;;
14048;SDS011;7099;53.922;10.728;2023-04-08T20:10:01;53.53;;;25.33;;
14048;SDS011;7099;53.922;10.728;2023-04-08T20:14:07;49.23;;;22.17;;
14048;SDS011;7099;53.922;10.728;2023-04-08T20:18:12;53.03;;;24.50;;
14048;SDS011;7099;53.922;10.728;2023-04-08T20:22:20;52.47;;;22.50;;
14048;SDS011;7099;53.922;10.728;2023-04-08T20:26:26;42.07;;;20.30;;
14048;SDS011;7099;53.922;10.728;2023-04-08T20:30:31;56.60;;;22.10;;
14048;SDS011;7099;53.922;10.728;2023-04-08T20:34:37;47.87;;;23.10;;
14048;SDS011;7099;53.922;10.728;2023-04-08T20:38:43;54.20;;;23.27;;
14048;SDS011;7099;53.922;10.728;2023-04-08T20:42:48;57.03;;;24.43;;
14048;SDS011;7099;53.922;10.728;2023-04-08T20:46:54;52.73;;;24.80;;
14048;SDS011;7099;53.922;10.728;2023-04-08T20:51:00;61.23;;;24.93;;
14048;SDS011;7099;53.922;10.728;2023-04-08T20:55:06;66.60;;;25.20;;
14048;SDS011;7099;53.922;10.728;2023-04-08T20:59:12;67.60;;;25.20;;
14048;SDS011;7099;53.922;10.728;2023-04-08T21:03:17;61.57;;;27.17;;
14048;SDS011;7099;53.922;10.728;2023-04-08T21:07:23;59.30;;;27.33;;
14048;SDS011;7099;53.922;10.728;2023-04-08T21:11:29;71.80;;;28.20;;
14048;SDS011;7099;53.922;10.728;2023-04-08T21:15:35;64.30;;;24.57;;
14048;SDS011;7099;53.922;10.728;2023-04-08T21:19:41;57.00;;;23.60;;
14048;SDS011;7099;53.922;10.728;2023-04-08T21:23:46;91.13;;;35.60;;
14048;SDS011;7099;53.922;10.728;2023-04-08T21:27:52;85.77;;;33.37;;
14048;SDS011;7099;53.922;10.728;2023-04-08T21:31:58;87.53;;;32.53;;
14048;SDS011;7099;53.922;10.728;2023-04-08T21:36:03;81.30;;;32.23;;
14048;SDS011;7099;53.922;10.728;2023-04-08T21:40:12;73.53;;;27.97;;
14048;SDS011;7099;53.922;10.728;2023-04-08T21:44:18;57.50;;;23.57;;
14048;SDS011;7099;53.922;10.728;2023-04-08T21:48:23;78.93;;;23.53;;
14048;SDS011;7099;53.922;10.728;2023-04-08T21:52:29;67.87;;;24.90;;
14048;SDS011;7099;53.922;10.728;2023-04-08T21:56:35;53.13;;;22.00;;
14048;SDS011;7099;53.922;10.728;2023-04-08T22:00:40;47.97;;;21.60;;
14048;SDS011;7099;53.922;10.728;2023-04-08T22:04:46;52.30;;;21.80;;
14048;SDS011;7099;53.922;10.728;2023-04-08T22:08:52;53.17;;;20.07;;
14048;SDS011;7099;53.922;10.728;2023-04-08T22:12:58;58.57;;;21.80;;
14048;SDS011;7099;53.922;10.728;2023-04-08T22:17:04;48.30;;;20.97;;
14048;SDS011;7099;53.922;10.728;2023-04-08T22:21:10;57.17;;;20.80;;
14048;SDS011;7099;53.922;10.728;2023-04-08T22:25:15;61.70;;;23.10;;
14048;SDS011;7099;53.922;10.728;2023-04-08T22:29:21;58.87;;;22.33;;
14048;SDS011;7099;53.922;10.728;2023-04-08T22:33:26;58.17;;;21.80;;
14048;SDS011;7099;53.922;10.728;2023-04-08T22:37:32;55.77;;;22.77;;
14048;SDS011;7099;53.922;10.728;2023-04-08T22:41:38;61.23;;;22.17;;
14048;SDS011;7099;53.922;10.728;2023-04-08T22:45:43;64.27;;;24.47;;
14048;SDS011;7099;53.922;10.728;2023-04-08T22:49:49;70.70;;;26.63;;
14048;SDS011;7099;53.922;10.728;2023-04-08T22:53:55;59.77;;;24.00;;
14048;SDS011;7099;53.922;10.728;2023-04-08T22:58:00;62.70;;;24.57;;
14048;SDS011;7099;53.922;10.728;2023-04-08T23:02:06;64.13;;;26.20;;
14048;SDS011;7099;53.922;10.728;2023-04-08T23:06:12;67.87;;;25.83;;
14048;SDS011;7099;53.922;10.728;2023-04-08T23:10:17;66.10;;;27.37;;
14048;SDS011;7099;53.922;10.728;2023-04-08T23:14:23;57.40;;;25.07;;
14048;SDS011;7099;53.922;10.728;2023-04-08T23:18:28;52.43;;;22.50;;
14048;SDS011;7099;53.922;10.728;2023-04-08T23:22:34;62.17;;;24.37;;
14048;SDS011;7099;53.922;10.728;2023-04-08T23:26:40;54.30;;;21.60;;
14048;SDS011;7099;53.922;10.728;2023-04-08T23:30:45;47.07;;;22.93;;
14048;SDS011;7099;53.922;10.728;2023-04-08T23:34:51;41.50;;;20.10;;
14048;SDS011;7099;53.922;10.728;2023-04-08T23:38:58;43.13;;;18.40;;
14048;SDS011;7099;53.922;10.728;2023-04-08T23:43:04;40.50;;;19.50;;
14048;SDS011;7099;53.922;10.728;2023-04-08T23:47:09;45.27;;;19.40;;
14048;SDS011;7099;53.922;10.728;2023-04-08T23:51:15;41.17;;;18.47;;
14048;SDS011;7099;53.922;10.728;2023-04-08T23:55:20;36.23;;;19.13;;
14048;SDS011;7099;53.922;10.728;2023-04-08T23:59:26;39.70;;;18.67;;
